sensor_id;sensor_type;location;lat;lon;timestamp;P1;durP1;ratioP1;P2;durP2;ratioP2
79414;SDS011;68864;44.972;19.612;2023-06-19T00:00:02;7.78;;;4.25;;
79414;SDS011;68864;44.972;19.612;2023-06-19T00:02:33;7.38;;;4.25;;
79414;SDS011;68864;44.972;19.612;2023-06-19T00:05:00;10.48;;;7.07;;
79414;SDS011;68864;44.972;19.612;2023-06-19T00:07:29;9.25;;;7.63;;
79414;SDS011;68864;44.972;19.612;2023-06-19T00:09:55;8.73;;;6.35;;
79414;SDS011;68864;44.972;19.612;2023-06-19T00:12:22;8.70;;;7.00;;
79414;SDS011;68864;44.972;19.612;2023-06-19T00:14:49;5.88;;;3.35;;
79414;SDS011;68864;44.972;19.612;2023-06-19T00:17:16;11.23;;;9.30;;
79414;SDS011;68864;44.972;19.612;2023-06-19T00:19:44;9.95;;;4.35;;
79414;SDS011;68864;44.972;19.612;2023-06-19T00:22:11;7.55;;;4.50;;
79414;SDS011;68864;44.972;19.612;2023-06-19T00:24:38;7.85;;;3.05;;
79414;SDS011;68864;44.972;19.612;2023-06-19T00:27:05;9.82;;;6.80;;
79414;SDS011;68864;44.972;19.612;2023-06-19T00:29:32;7.03;;;3.67;;
79414;SDS011;68864;44.972;19.612;2023-06-19T00:34:26;7.80;;;4.63;;
79414;SDS011;68864;44.972;19.612;2023-06-19T00:36:56;8.07;;;4.07;;
79414;SDS011;68864;44.972;19.612;2023-06-19T00:39:24;11.60;;;5.15;;
79414;SDS011;68864;44.972;19.612;2023-06-19T00:41:52;8.25;;;3.35;;
79414;SDS011;68864;44.972;19.612;2023-06-19T00:46:46;9.32;;;4.78;;
79414;SDS011;68864;44.972;19.612;2023-06-19T00:49:15;10.90;;;7.35;;
79414;SDS011;68864;44.972;19.612;2023-06-19T00:51:42;9.95;;;5.43;;
79414;SDS011;68864;44.972;19.612;2023-06-19T00:54:10;10.70;;;7.47;;
79414;SDS011;68864;44.972;19.612;2023-06-19T00:56:37;9.73;;;7.00;;
79414;SDS011;68864;44.972;19.612;2023-06-19T00:59:05;8.05;;;3.45;;
79414;SDS011;68864;44.972;19.612;2023-06-19T01:01:41;7.22;;;3.17;;
79414;SDS011;68864;44.972;19.612;2023-06-19T01:04:09;9.50;;;6.05;;
79414;SDS011;68864;44.972;19.612;2023-06-19T01:06:37;5.78;;;3.75;;
79414;SDS011;68864;44.972;19.612;2023-06-19T01:09:13;9.00;;;6.20;;
79414;SDS011;68864;44.972;19.612;2023-06-19T01:11:43;6.38;;;3.15;;
79414;SDS011;68864;44.972;19.612;2023-06-19T01:14:14;6.57;;;3.25;;
79414;SDS011;68864;44.972;19.612;2023-06-19T01:16:47;6.57;;;4.22;;
79414;SDS011;68864;44.972;19.612;2023-06-19T01:21:44;9.48;;;8.50;;
79414;SDS011;68864;44.972;19.612;2023-06-19T01:24:12;7.95;;;6.18;;
79414;SDS011;68864;44.972;19.612;2023-06-19T01:26:39;9.68;;;8.50;;
79414;SDS011;68864;44.972;19.612;2023-06-19T01:29:07;7.32;;;5.68;;
79414;SDS011;68864;44.972;19.612;2023-06-19T01:31:35;7.85;;;5.38;;
79414;SDS011;68864;44.972;19.612;2023-06-19T01:34:06;7.03;;;3.13;;
79414;SDS011;68864;44.972;19.612;2023-06-19T01:36:35;7.68;;;4.25;;
79414;SDS011;68864;44.972;19.612;2023-06-19T01:39:02;10.55;;;7.25;;
79414;SDS011;68864;44.972;19.612;2023-06-19T01:41:31;6.57;;;3.65;;
79414;SDS011;68864;44.972;19.612;2023-06-19T01:43:59;8.82;;;2.75;;
79414;SDS011;68864;44.972;19.612;2023-06-19T01:46:26;7.97;;;7.18;;
79414;SDS011;68864;44.972;19.612;2023-06-19T01:48:53;9.52;;;6.18;;
79414;SDS011;68864;44.972;19.612;2023-06-19T01:51:20;8.30;;;3.17;;
79414;SDS011;68864;44.972;19.612;2023-06-19T01:53:47;7.03;;;3.63;;
79414;SDS011;68864;44.972;19.612;2023-06-19T01:56:14;7.70;;;3.22;;
79414;SDS011;68864;44.972;19.612;2023-06-19T01:58:42;10.15;;;7.50;;
79414;SDS011;68864;44.972;19.612;2023-06-19T02:01:09;7.32;;;3.13;;
79414;SDS011;68864;44.972;19.612;2023-06-19T02:03:36;5.05;;;2.45;;
79414;SDS011;68864;44.972;19.612;2023-06-19T02:06:02;9.55;;;5.97;;
79414;SDS011;68864;44.972;19.612;2023-06-19T02:08:30;10.25;;;5.88;;
79414;SDS011;68864;44.972;19.612;2023-06-19T02:10:56;16.10;;;6.82;;
79414;SDS011;68864;44.972;19.612;2023-06-19T02:13:23;5.68;;;3.25;;
79414;SDS011;68864;44.972;19.612;2023-06-19T02:15:51;9.77;;;5.93;;
79414;SDS011;68864;44.972;19.612;2023-06-19T02:18:18;7.43;;;3.00;;
79414;SDS011;68864;44.972;19.612;2023-06-19T02:20:45;7.75;;;4.45;;
79414;SDS011;68864;44.972;19.612;2023-06-19T02:23:12;7.25;;;2.50;;
79414;SDS011;68864;44.972;19.612;2023-06-19T02:25:39;10.50;;;6.35;;
79414;SDS011;68864;44.972;19.612;2023-06-19T02:28:05;5.68;;;2.80;;
79414;SDS011;68864;44.972;19.612;2023-06-19T02:30:32;7.55;;;6.53;;
79414;SDS011;68864;44.972;19.612;2023-06-19T02:33:00;6.85;;;5.50;;
79414;SDS011;68864;44.972;19.612;2023-06-19T02:35:27;8.98;;;6.45;;
79414;SDS011;68864;44.972;19.612;2023-06-19T02:37:54;7.57;;;5.15;;
79414;SDS011;68864;44.972;19.612;2023-06-19T02:40:20;7.53;;;2.65;;
79414;SDS011;68864;44.972;19.612;2023-06-19T02:42:47;8.40;;;3.45;;
79414;SDS011;68864;44.972;19.612;2023-06-19T02:45:14;6.95;;;3.72;;
79414;SDS011;68864;44.972;19.612;2023-06-19T02:47:41;6.95;;;2.50;;
79414;SDS011;68864;44.972;19.612;2023-06-19T02:50:10;5.43;;;2.90;;
79414;SDS011;68864;44.972;19.612;2023-06-19T02:52:36;9.02;;;3.05;;
79414;SDS011;68864;44.972;19.612;2023-06-19T02:55:03;7.57;;;3.15;;
79414;SDS011;68864;44.972;19.612;2023-06-19T02:57:32;6.45;;;2.78;;
79414;SDS011;68864;44.972;19.612;2023-06-19T02:59:59;7.07;;;3.03;;
79414;SDS011;68864;44.972;19.612;2023-06-19T03:02:26;10.07;;;2.97;;
79414;SDS011;68864;44.972;19.612;2023-06-19T03:04:52;8.02;;;5.10;;
79414;SDS011;68864;44.972;19.612;2023-06-19T03:07:21;6.75;;;4.85;;
79414;SDS011;68864;44.972;19.612;2023-06-19T03:09:47;7.63;;;5.50;;
79414;SDS011;68864;44.972;19.612;2023-06-19T03:12:14;7.15;;;3.42;;
79414;SDS011;68864;44.972;19.612;2023-06-19T03:14:41;7.75;;;3.72;;
79414;SDS011;68864;44.972;19.612;2023-06-19T03:17:07;10.02;;;6.22;;
79414;SDS011;68864;44.972;19.612;2023-06-19T03:19:34;9.30;;;6.90;;
79414;SDS011;68864;44.972;19.612;2023-06-19T03:22:01;10.88;;;8.05;;
79414;SDS011;68864;44.972;19.612;2023-06-19T03:24:29;11.50;;;8.40;;
79414;SDS011;68864;44.972;19.612;2023-06-19T03:26:56;8.27;;;5.80;;
79414;SDS011;68864;44.972;19.612;2023-06-19T03:29:23;8.40;;;3.92;;
79414;SDS011;68864;44.972;19.612;2023-06-19T03:31:49;6.85;;;2.83;;
79414;SDS011;68864;44.972;19.612;2023-06-19T03:34:16;11.88;;;3.75;;
79414;SDS011;68864;44.972;19.612;2023-06-19T03:36:43;8.25;;;6.88;;
79414;SDS011;68864;44.972;19.612;2023-06-19T03:39:10;12.30;;;8.38;;
79414;SDS011;68864;44.972;19.612;2023-06-19T03:41:38;11.13;;;6.30;;
79414;SDS011;68864;44.972;19.612;2023-06-19T03:44:05;10.43;;;4.93;;
79414;SDS011;68864;44.972;19.612;2023-06-19T03:46:31;10.38;;;7.85;;
79414;SDS011;68864;44.972;19.612;2023-06-19T03:48:58;10.93;;;8.27;;
79414;SDS011;68864;44.972;19.612;2023-06-19T03:51:25;13.10;;;5.95;;
79414;SDS011;68864;44.972;19.612;2023-06-19T03:53:54;11.25;;;8.95;;
79414;SDS011;68864;44.972;19.612;2023-06-19T03:56:20;10.68;;;7.28;;
79414;SDS011;68864;44.972;19.612;2023-06-19T03:58:49;9.10;;;4.93;;
79414;SDS011;68864;44.972;19.612;2023-06-19T04:01:15;7.97;;;4.97;;
79414;SDS011;68864;44.972;19.612;2023-06-19T04:03:42;14.32;;;5.90;;
79414;SDS011;68864;44.972;19.612;2023-06-19T04:08:35;10.95;;;5.25;;
79414;SDS011;68864;44.972;19.612;2023-06-19T04:11:02;13.20;;;8.35;;
79414;SDS011;68864;44.972;19.612;2023-06-19T04:13:29;12.00;;;8.50;;
79414;SDS011;68864;44.972;19.612;2023-06-19T04:15:57;10.38;;;9.15;;
79414;SDS011;68864;44.972;19.612;2023-06-19T04:18:24;9.27;;;6.35;;
79414;SDS011;68864;44.972;19.612;2023-06-19T04:20:52;10.85;;;8.40;;
79414;SDS011;68864;44.972;19.612;2023-06-19T04:23:19;8.90;;;4.75;;
79414;SDS011;68864;44.972;19.612;2023-06-19T04:25:46;10.25;;;7.97;;
79414;SDS011;68864;44.972;19.612;2023-06-19T04:28:12;10.18;;;8.35;;
79414;SDS011;68864;44.972;19.612;2023-06-19T04:30:39;7.75;;;4.13;;
79414;SDS011;68864;44.972;19.612;2023-06-19T04:33:07;39.83;;;23.05;;
79414;SDS011;68864;44.972;19.612;2023-06-19T04:35:34;30.35;;;21.27;;
79414;SDS011;68864;44.972;19.612;2023-06-19T04:38:05;31.33;;;19.23;;
79414;SDS011;68864;44.972;19.612;2023-06-19T04:40:31;42.20;;;20.60;;
79414;SDS011;68864;44.972;19.612;2023-06-19T04:42:58;19.60;;;10.88;;
79414;SDS011;68864;44.972;19.612;2023-06-19T04:45:25;14.95;;;8.18;;
79414;SDS011;68864;44.972;19.612;2023-06-19T04:47:52;14.38;;;6.82;;
79414;SDS011;68864;44.972;19.612;2023-06-19T04:50:20;14.13;;;5.50;;
79414;SDS011;68864;44.972;19.612;2023-06-19T04:52:47;16.48;;;11.10;;
79414;SDS011;68864;44.972;19.612;2023-06-19T04:55:15;31.67;;;19.35;;
79414;SDS011;68864;44.972;19.612;2023-06-19T05:00:09;31.05;;;20.10;;
79414;SDS011;68864;44.972;19.612;2023-06-19T05:02:36;32.22;;;17.63;;
79414;SDS011;68864;44.972;19.612;2023-06-19T05:05:03;21.45;;;10.13;;
79414;SDS011;68864;44.972;19.612;2023-06-19T05:07:32;16.95;;;9.45;;
79414;SDS011;68864;44.972;19.612;2023-06-19T05:09:59;13.57;;;6.95;;
79414;SDS011;68864;44.972;19.612;2023-06-19T05:12:25;13.05;;;5.78;;
79414;SDS011;68864;44.972;19.612;2023-06-19T05:14:52;8.45;;;5.22;;
79414;SDS011;68864;44.972;19.612;2023-06-19T05:17:19;9.60;;;7.75;;
79414;SDS011;68864;44.972;19.612;2023-06-19T05:19:45;11.45;;;9.50;;
79414;SDS011;68864;44.972;19.612;2023-06-19T05:22:12;10.80;;;4.85;;
79414;SDS011;68864;44.972;19.612;2023-06-19T05:24:40;8.75;;;4.38;;
79414;SDS011;68864;44.972;19.612;2023-06-19T05:27:07;9.52;;;3.97;;
79414;SDS011;68864;44.972;19.612;2023-06-19T05:29:34;8.95;;;4.13;;
79414;SDS011;68864;44.972;19.612;2023-06-19T05:32:01;9.40;;;7.00;;
79414;SDS011;68864;44.972;19.612;2023-06-19T05:34:27;8.35;;;4.10;;
79414;SDS011;68864;44.972;19.612;2023-06-19T05:36:54;9.07;;;4.10;;
79414;SDS011;68864;44.972;19.612;2023-06-19T05:39:21;8.60;;;2.97;;
79414;SDS011;68864;44.972;19.612;2023-06-19T05:41:49;11.52;;;9.60;;
79414;SDS011;68864;44.972;19.612;2023-06-19T05:44:16;7.70;;;3.50;;
79414;SDS011;68864;44.972;19.612;2023-06-19T05:46:44;10.57;;;5.07;;
79414;SDS011;68864;44.972;19.612;2023-06-19T05:51:37;26.45;;;17.25;;
79414;SDS011;68864;44.972;19.612;2023-06-19T05:54:04;36.67;;;21.35;;
79414;SDS011;68864;44.972;19.612;2023-06-19T05:56:31;54.65;;;31.52;;
79414;SDS011;68864;44.972;19.612;2023-06-19T05:59:00;30.55;;;20.17;;
79414;SDS011;68864;44.972;19.612;2023-06-19T06:01:27;17.35;;;9.57;;
79414;SDS011;68864;44.972;19.612;2023-06-19T06:06:20;12.27;;;4.10;;
79414;SDS011;68864;44.972;19.612;2023-06-19T06:11:14;10.88;;;5.18;;
79414;SDS011;68864;44.972;19.612;2023-06-19T06:13:41;10.00;;;5.72;;
79414;SDS011;68864;44.972;19.612;2023-06-19T06:16:09;8.50;;;6.25;;
79414;SDS011;68864;44.972;19.612;2023-06-19T06:18:36;9.32;;;7.97;;
79414;SDS011;68864;44.972;19.612;2023-06-19T06:21:02;11.00;;;7.97;;
79414;SDS011;68864;44.972;19.612;2023-06-19T06:23:29;5.97;;;2.90;;
79414;SDS011;68864;44.972;19.612;2023-06-19T06:25:56;17.55;;;14.07;;
79414;SDS011;68864;44.972;19.612;2023-06-19T06:28:27;44.15;;;31.15;;
79414;SDS011;68864;44.972;19.612;2023-06-19T06:30:54;26.08;;;11.43;;
79414;SDS011;68864;44.972;19.612;2023-06-19T06:33:22;32.17;;;18.48;;
79414;SDS011;68864;44.972;19.612;2023-06-19T06:35:49;32.55;;;23.10;;
79414;SDS011;68864;44.972;19.612;2023-06-19T06:38:16;12.70;;;8.77;;
79414;SDS011;68864;44.972;19.612;2023-06-19T06:40:43;8.63;;;3.95;;
79414;SDS011;68864;44.972;19.612;2023-06-19T06:43:10;13.75;;;10.05;;
79414;SDS011;68864;44.972;19.612;2023-06-19T06:45:36;8.70;;;7.30;;
79414;SDS011;68864;44.972;19.612;2023-06-19T06:48:04;9.95;;;7.75;;
79414;SDS011;68864;44.972;19.612;2023-06-19T06:50:33;7.95;;;6.90;;
79414;SDS011;68864;44.972;19.612;2023-06-19T06:53:00;8.75;;;6.57;;
79414;SDS011;68864;44.972;19.612;2023-06-19T06:55:28;11.10;;;6.63;;
79414;SDS011;68864;44.972;19.612;2023-06-19T06:57:57;14.68;;;8.38;;
79414;SDS011;68864;44.972;19.612;2023-06-19T07:00:23;12.50;;;8.30;;
79414;SDS011;68864;44.972;19.612;2023-06-19T07:05:17;15.00;;;10.40;;
79414;SDS011;68864;44.972;19.612;2023-06-19T07:07:46;10.88;;;7.75;;
79414;SDS011;68864;44.972;19.612;2023-06-19T07:10:12;13.13;;;10.23;;
79414;SDS011;68864;44.972;19.612;2023-06-19T07:15:13;19.17;;;11.60;;
79414;SDS011;68864;44.972;19.612;2023-06-19T07:20:06;9.23;;;4.55;;
79414;SDS011;68864;44.972;19.612;2023-06-19T07:22:34;9.80;;;8.70;;
79414;SDS011;68864;44.972;19.612;2023-06-19T07:25:02;11.23;;;9.50;;
79414;SDS011;68864;44.972;19.612;2023-06-19T07:27:30;8.93;;;5.35;;
79414;SDS011;68864;44.972;19.612;2023-06-19T07:29:57;12.07;;;9.48;;
79414;SDS011;68864;44.972;19.612;2023-06-19T07:32:24;10.50;;;8.15;;
79414;SDS011;68864;44.972;19.612;2023-06-19T07:34:51;7.03;;;3.13;;
79414;SDS011;68864;44.972;19.612;2023-06-19T07:37:17;12.50;;;8.00;;
79414;SDS011;68864;44.972;19.612;2023-06-19T07:39:44;8.85;;;4.28;;
79414;SDS011;68864;44.972;19.612;2023-06-19T07:42:13;7.18;;;4.32;;
79414;SDS011;68864;44.972;19.612;2023-06-19T07:44:40;12.98;;;8.38;;
79414;SDS011;68864;44.972;19.612;2023-06-19T07:47:07;9.00;;;7.78;;
79414;SDS011;68864;44.972;19.612;2023-06-19T07:49:34;10.60;;;7.68;;
79414;SDS011;68864;44.972;19.612;2023-06-19T07:52:01;24.63;;;11.32;;
79414;SDS011;68864;44.972;19.612;2023-06-19T07:54:28;9.15;;;4.95;;
79414;SDS011;68864;44.972;19.612;2023-06-19T07:56:55;11.07;;;7.55;;
79414;SDS011;68864;44.972;19.612;2023-06-19T07:59:23;9.02;;;8.13;;
79414;SDS011;68864;44.972;19.612;2023-06-19T08:01:50;9.07;;;7.15;;
79414;SDS011;68864;44.972;19.612;2023-06-19T08:04:17;9.30;;;5.82;;
79414;SDS011;68864;44.972;19.612;2023-06-19T08:06:43;10.40;;;8.18;;
79414;SDS011;68864;44.972;19.612;2023-06-19T08:09:10;8.93;;;7.60;;
79414;SDS011;68864;44.972;19.612;2023-06-19T08:11:37;10.85;;;8.43;;
79414;SDS011;68864;44.972;19.612;2023-06-19T08:14:04;10.52;;;5.88;;
79414;SDS011;68864;44.972;19.612;2023-06-19T08:16:32;9.20;;;7.35;;
79414;SDS011;68864;44.972;19.612;2023-06-19T08:18:58;7.45;;;3.45;;
79414;SDS011;68864;44.972;19.612;2023-06-19T08:21:25;6.85;;;5.93;;
79414;SDS011;68864;44.972;19.612;2023-06-19T08:23:52;5.68;;;3.33;;
79414;SDS011;68864;44.972;19.612;2023-06-19T08:26:19;7.57;;;5.35;;
79414;SDS011;68864;44.972;19.612;2023-06-19T08:28:45;13.45;;;4.70;;
79414;SDS011;68864;44.972;19.612;2023-06-19T08:31:12;8.52;;;5.72;;
79414;SDS011;68864;44.972;19.612;2023-06-19T08:33:41;8.27;;;3.03;;
79414;SDS011;68864;44.972;19.612;2023-06-19T08:36:07;6.30;;;3.45;;
79414;SDS011;68864;44.972;19.612;2023-06-19T08:38:34;8.00;;;2.92;;
79414;SDS011;68864;44.972;19.612;2023-06-19T08:41:01;6.75;;;4.60;;
79414;SDS011;68864;44.972;19.612;2023-06-19T08:43:27;11.32;;;6.53;;
79414;SDS011;68864;44.972;19.612;2023-06-19T08:46:01;7.25;;;3.08;;
79414;SDS011;68864;44.972;19.612;2023-06-19T08:48:34;6.22;;;2.40;;
79414;SDS011;68864;44.972;19.612;2023-06-19T08:51:02;10.20;;;4.72;;
79414;SDS011;68864;44.972;19.612;2023-06-19T08:53:32;10.55;;;6.20;;
79414;SDS011;68864;44.972;19.612;2023-06-19T08:56:00;11.18;;;3.88;;
79414;SDS011;68864;44.972;19.612;2023-06-19T08:58:27;5.45;;;2.17;;
79414;SDS011;68864;44.972;19.612;2023-06-19T09:00:53;8.80;;;3.50;;
79414;SDS011;68864;44.972;19.612;2023-06-19T09:03:20;6.88;;;5.80;;
79414;SDS011;68864;44.972;19.612;2023-06-19T09:05:48;10.15;;;5.68;;
79414;SDS011;68864;44.972;19.612;2023-06-19T09:08:17;8.35;;;2.95;;
79414;SDS011;68864;44.972;19.612;2023-06-19T09:10:54;7.72;;;6.93;;
79414;SDS011;68864;44.972;19.612;2023-06-19T09:13:23;7.85;;;2.72;;
79414;SDS011;68864;44.972;19.612;2023-06-19T09:15:56;5.57;;;4.75;;
79414;SDS011;68864;44.972;19.612;2023-06-19T09:18:25;7.18;;;2.45;;
79414;SDS011;68864;44.972;19.612;2023-06-19T09:20:52;8.57;;;5.72;;
79414;SDS011;68864;44.972;19.612;2023-06-19T09:23:21;8.60;;;5.45;;
79414;SDS011;68864;44.972;19.612;2023-06-19T09:25:49;6.65;;;3.88;;
79414;SDS011;68864;44.972;19.612;2023-06-19T09:28:20;5.15;;;3.60;;
79414;SDS011;68864;44.972;19.612;2023-06-19T09:30:54;6.15;;;2.95;;
79414;SDS011;68864;44.972;19.612;2023-06-19T09:33:22;7.53;;;4.13;;
79414;SDS011;68864;44.972;19.612;2023-06-19T09:35:49;5.88;;;2.85;;
79414;SDS011;68864;44.972;19.612;2023-06-19T09:38:16;9.55;;;5.07;;
79414;SDS011;68864;44.972;19.612;2023-06-19T09:40:45;8.57;;;4.88;;
79414;SDS011;68864;44.972;19.612;2023-06-19T09:43:15;6.50;;;5.22;;
79414;SDS011;68864;44.972;19.612;2023-06-19T09:45:46;5.95;;;2.70;;
79414;SDS011;68864;44.972;19.612;2023-06-19T09:48:15;5.25;;;3.47;;
79414;SDS011;68864;44.972;19.612;2023-06-19T09:50:45;7.60;;;5.70;;
79414;SDS011;68864;44.972;19.612;2023-06-19T09:53:17;8.60;;;6.20;;
79414;SDS011;68864;44.972;19.612;2023-06-19T09:55:46;7.88;;;5.78;;
79414;SDS011;68864;44.972;19.612;2023-06-19T09:58:15;6.75;;;6.03;;
79414;SDS011;68864;44.972;19.612;2023-06-19T10:00:43;6.13;;;3.60;;
79414;SDS011;68864;44.972;19.612;2023-06-19T10:03:11;6.35;;;5.50;;
79414;SDS011;68864;44.972;19.612;2023-06-19T10:05:39;6.35;;;4.72;;
79414;SDS011;68864;44.972;19.612;2023-06-19T10:08:06;8.13;;;5.95;;
79414;SDS011;68864;44.972;19.612;2023-06-19T10:10:33;7.65;;;2.22;;
79414;SDS011;68864;44.972;19.612;2023-06-19T10:13:13;6.97;;;4.80;;
79414;SDS011;68864;44.972;19.612;2023-06-19T10:15:41;7.82;;;4.07;;
79414;SDS011;68864;44.972;19.612;2023-06-19T10:18:12;9.35;;;2.20;;
79414;SDS011;68864;44.972;19.612;2023-06-19T10:20:41;7.13;;;4.55;;
79414;SDS011;68864;44.972;19.612;2023-06-19T10:23:10;7.38;;;4.28;;
79414;SDS011;68864;44.972;19.612;2023-06-19T10:25:38;12.48;;;5.28;;
79414;SDS011;68864;44.972;19.612;2023-06-19T10:28:17;6.25;;;5.13;;
79414;SDS011;68864;44.972;19.612;2023-06-19T10:30:44;5.57;;;2.67;;
79414;SDS011;68864;44.972;19.612;2023-06-19T10:33:11;10.52;;;5.55;;
79414;SDS011;68864;44.972;19.612;2023-06-19T10:38:05;6.57;;;4.32;;
79414;SDS011;68864;44.972;19.612;2023-06-19T10:40:33;7.47;;;6.55;;
79414;SDS011;68864;44.972;19.612;2023-06-19T10:43:01;5.50;;;2.45;;
79414;SDS011;68864;44.972;19.612;2023-06-19T10:45:30;5.15;;;2.85;;
79414;SDS011;68864;44.972;19.612;2023-06-19T10:47:57;4.40;;;1.92;;
79414;SDS011;68864;44.972;19.612;2023-06-19T10:50:27;5.55;;;2.58;;
79414;SDS011;68864;44.972;19.612;2023-06-19T10:52:54;6.22;;;2.78;;
79414;SDS011;68864;44.972;19.612;2023-06-19T10:55:23;6.05;;;2.45;;
79414;SDS011;68864;44.972;19.612;2023-06-19T10:57:50;5.03;;;3.08;;
79414;SDS011;68864;44.972;19.612;2023-06-19T11:00:27;10.48;;;3.17;;
79414;SDS011;68864;44.972;19.612;2023-06-19T11:02:56;5.10;;;2.58;;
79414;SDS011;68864;44.972;19.612;2023-06-19T11:05:25;9.02;;;7.15;;
79414;SDS011;68864;44.972;19.612;2023-06-19T11:07:54;6.00;;;3.42;;
79414;SDS011;68864;44.972;19.612;2023-06-19T11:10:22;5.82;;;3.20;;
79414;SDS011;68864;44.972;19.612;2023-06-19T11:12:49;4.35;;;2.17;;
79414;SDS011;68864;44.972;19.612;2023-06-19T11:15:16;5.82;;;2.45;;
79414;SDS011;68864;44.972;19.612;2023-06-19T11:17:43;7.80;;;6.70;;
79414;SDS011;68864;44.972;19.612;2023-06-19T11:20:12;4.55;;;1.88;;
79414;SDS011;68864;44.972;19.612;2023-06-19T11:22:40;5.80;;;2.85;;
79414;SDS011;68864;44.972;19.612;2023-06-19T11:25:08;9.50;;;2.75;;
79414;SDS011;68864;44.972;19.612;2023-06-19T11:27:38;5.85;;;2.50;;
79414;SDS011;68864;44.972;19.612;2023-06-19T11:30:06;4.15;;;2.58;;
79414;SDS011;68864;44.972;19.612;2023-06-19T11:32:35;10.10;;;4.43;;
79414;SDS011;68864;44.972;19.612;2023-06-19T11:35:07;5.35;;;3.17;;
79414;SDS011;68864;44.972;19.612;2023-06-19T11:37:39;5.65;;;5.03;;
79414;SDS011;68864;44.972;19.612;2023-06-19T11:40:07;6.70;;;2.13;;
79414;SDS011;68864;44.972;19.612;2023-06-19T11:42:46;5.70;;;2.92;;
79414;SDS011;68864;44.972;19.612;2023-06-19T11:45:14;7.07;;;4.35;;
79414;SDS011;68864;44.972;19.612;2023-06-19T11:47:42;8.27;;;5.88;;
79414;SDS011;68864;44.972;19.612;2023-06-19T11:50:10;8.10;;;3.40;;
79414;SDS011;68864;44.972;19.612;2023-06-19T11:52:39;5.45;;;2.65;;
79414;SDS011;68864;44.972;19.612;2023-06-19T11:55:06;4.57;;;4.03;;
79414;SDS011;68864;44.972;19.612;2023-06-19T11:57:33;4.55;;;2.42;;
79414;SDS011;68864;44.972;19.612;2023-06-19T12:00:00;5.18;;;2.53;;
79414;SDS011;68864;44.972;19.612;2023-06-19T12:02:32;6.78;;;4.97;;
79414;SDS011;68864;44.972;19.612;2023-06-19T12:04:58;4.50;;;2.15;;
79414;SDS011;68864;44.972;19.612;2023-06-19T12:07:25;5.78;;;5.22;;
79414;SDS011;68864;44.972;19.612;2023-06-19T12:09:53;4.80;;;1.85;;
79414;SDS011;68864;44.972;19.612;2023-06-19T12:12:20;3.97;;;1.80;;
79414;SDS011;68864;44.972;19.612;2023-06-19T12:14:47;6.38;;;5.07;;
79414;SDS011;68864;44.972;19.612;2023-06-19T12:17:14;4.65;;;1.98;;
79414;SDS011;68864;44.972;19.612;2023-06-19T12:19:41;4.15;;;1.58;;
79414;SDS011;68864;44.972;19.612;2023-06-19T12:22:07;5.30;;;4.15;;
79414;SDS011;68864;44.972;19.612;2023-06-19T12:24:34;8.10;;;5.50;;
79414;SDS011;68864;44.972;19.612;2023-06-19T12:29:29;5.18;;;2.55;;
79414;SDS011;68864;44.972;19.612;2023-06-19T12:31:59;4.28;;;2.17;;
79414;SDS011;68864;44.972;19.612;2023-06-19T12:34:27;4.45;;;2.17;;
79414;SDS011;68864;44.972;19.612;2023-06-19T12:36:53;4.82;;;2.85;;
79414;SDS011;68864;44.972;19.612;2023-06-19T12:39:22;8.70;;;5.03;;
79414;SDS011;68864;44.972;19.612;2023-06-19T12:41:49;6.93;;;4.53;;
79414;SDS011;68864;44.972;19.612;2023-06-19T12:44:18;5.80;;;3.00;;
79414;SDS011;68864;44.972;19.612;2023-06-19T12:46:44;4.63;;;2.80;;
79414;SDS011;68864;44.972;19.612;2023-06-19T12:49:11;7.57;;;5.45;;
79414;SDS011;68864;44.972;19.612;2023-06-19T12:51:38;5.07;;;2.33;;
79414;SDS011;68864;44.972;19.612;2023-06-19T12:54:05;6.18;;;2.78;;
79414;SDS011;68864;44.972;19.612;2023-06-19T12:56:31;4.05;;;2.40;;
79414;SDS011;68864;44.972;19.612;2023-06-19T12:58:58;5.70;;;1.85;;
79414;SDS011;68864;44.972;19.612;2023-06-19T13:01:26;5.03;;;1.95;;
79414;SDS011;68864;44.972;19.612;2023-06-19T13:03:53;6.22;;;2.10;;
79414;SDS011;68864;44.972;19.612;2023-06-19T13:06:20;4.00;;;1.65;;
79414;SDS011;68864;44.972;19.612;2023-06-19T13:08:46;6.78;;;1.58;;
79414;SDS011;68864;44.972;19.612;2023-06-19T13:11:13;5.95;;;2.08;;
79414;SDS011;68864;44.972;19.612;2023-06-19T13:13:40;6.55;;;3.28;;
79414;SDS011;68864;44.972;19.612;2023-06-19T13:16:07;4.78;;;2.78;;
79414;SDS011;68864;44.972;19.612;2023-06-19T13:18:35;5.72;;;4.68;;
79414;SDS011;68864;44.972;19.612;2023-06-19T13:21:02;4.25;;;1.98;;
79414;SDS011;68864;44.972;19.612;2023-06-19T13:23:29;4.43;;;2.25;;
79414;SDS011;68864;44.972;19.612;2023-06-19T13:25:57;7.85;;;4.45;;
79414;SDS011;68864;44.972;19.612;2023-06-19T13:28:23;5.95;;;2.10;;
79414;SDS011;68864;44.972;19.612;2023-06-19T13:30:50;4.35;;;2.33;;
79414;SDS011;68864;44.972;19.612;2023-06-19T13:33:17;6.93;;;2.17;;
79414;SDS011;68864;44.972;19.612;2023-06-19T13:38:11;7.35;;;2.08;;
79414;SDS011;68864;44.972;19.612;2023-06-19T13:40:38;5.15;;;2.10;;
79414;SDS011;68864;44.972;19.612;2023-06-19T13:43:05;5.75;;;2.75;;
79414;SDS011;68864;44.972;19.612;2023-06-19T13:45:32;7.38;;;2.35;;
79414;SDS011;68864;44.972;19.612;2023-06-19T13:47:59;3.38;;;1.75;;
79414;SDS011;68864;44.972;19.612;2023-06-19T13:50:25;6.72;;;2.15;;
79414;SDS011;68864;44.972;19.612;2023-06-19T13:52:54;6.95;;;2.72;;
79414;SDS011;68864;44.972;19.612;2023-06-19T13:55:20;3.53;;;1.60;;
79414;SDS011;68864;44.972;19.612;2023-06-19T13:57:48;4.70;;;2.25;;
79414;SDS011;68864;44.972;19.612;2023-06-19T14:00:15;4.03;;;2.22;;
79414;SDS011;68864;44.972;19.612;2023-06-19T14:02:42;5.18;;;2.33;;
79414;SDS011;68864;44.972;19.612;2023-06-19T14:05:09;6.80;;;5.13;;
79414;SDS011;68864;44.972;19.612;2023-06-19T14:07:36;7.53;;;6.82;;
79414;SDS011;68864;44.972;19.612;2023-06-19T14:10:05;5.07;;;2.83;;
79414;SDS011;68864;44.972;19.612;2023-06-19T14:12:33;3.60;;;1.73;;
79414;SDS011;68864;44.972;19.612;2023-06-19T14:17:26;6.03;;;3.63;;
79414;SDS011;68864;44.972;19.612;2023-06-19T14:19:53;5.57;;;2.42;;
79414;SDS011;68864;44.972;19.612;2023-06-19T14:22:20;6.38;;;3.22;;
79414;SDS011;68864;44.972;19.612;2023-06-19T14:24:47;8.60;;;5.53;;
79414;SDS011;68864;44.972;19.612;2023-06-19T14:27:15;7.10;;;5.22;;
79414;SDS011;68864;44.972;19.612;2023-06-19T14:29:42;5.50;;;3.22;;
79414;SDS011;68864;44.972;19.612;2023-06-19T14:32:10;5.57;;;2.40;;
79414;SDS011;68864;44.972;19.612;2023-06-19T14:34:37;5.18;;;2.35;;
79414;SDS011;68864;44.972;19.612;2023-06-19T14:37:04;6.57;;;2.47;;
79414;SDS011;68864;44.972;19.612;2023-06-19T14:39:31;4.85;;;1.88;;
79414;SDS011;68864;44.972;19.612;2023-06-19T14:44:25;5.82;;;1.83;;
79414;SDS011;68864;44.972;19.612;2023-06-19T14:46:52;4.70;;;1.67;;
79414;SDS011;68864;44.972;19.612;2023-06-19T14:49:20;5.55;;;2.75;;
79414;SDS011;68864;44.972;19.612;2023-06-19T14:51:47;6.97;;;2.50;;
79414;SDS011;68864;44.972;19.612;2023-06-19T14:54:13;7.38;;;6.03;;
79414;SDS011;68864;44.972;19.612;2023-06-19T14:56:42;6.93;;;3.95;;
79414;SDS011;68864;44.972;19.612;2023-06-19T14:59:09;5.00;;;2.22;;
79414;SDS011;68864;44.972;19.612;2023-06-19T15:01:37;5.65;;;2.80;;
79414;SDS011;68864;44.972;19.612;2023-06-19T15:04:05;4.78;;;2.90;;
79414;SDS011;68864;44.972;19.612;2023-06-19T15:06:32;6.07;;;2.45;;
79414;SDS011;68864;44.972;19.612;2023-06-19T15:08:59;10.45;;;2.30;;
79414;SDS011;68864;44.972;19.612;2023-06-19T15:11:25;4.55;;;2.03;;